Time;durP1;ratioP1;P1;durP2;ratioP2;P2;SDS_P1;SDS_P2;PMS_P1;PMS_P2;Temp;Humidity;BMP_temperature;BMP_pressure;BME280_temperature;BME280_humidity;BME280_pressure;Samples;Min_cycle;Max_cycle;Signal;HPM_P1;HPM_P2
2023/05/17 00:00:51;;;;;;;12.77;3.67;;;;;;;11.84;71.76;101978.94;5029903;28;20050;-66
2023/05/17 00:03:18;;;;;;;12.20;3.40;;;;;;;11.73;72.21;101980.19;5012348;28;20529;-65
2023/05/17 00:05:45;;;;;;;11.07;3.05;;;;;;;11.70;72.02;101981.56;5013253;28;20064;-66
2023/05/17 00:08:13;;;;;;;12.77;3.80;;;;;;;11.53;72.77;101972.03;5026421;28;20053;-65
2023/05/17 00:10:42;;;;;;;12.93;3.67;;;;;;;11.63;72.44;101974.72;5013617;28;20050;-66
2023/05/17 00:13:09;;;;;;;17.38;3.92;;;;;;;11.56;72.13;101982.53;4995900;28;20061;-65
2023/05/17 00:15:37;;;;;;;11.32;3.83;;;;;;;11.56;72.30;101971.47;5012356;28;20084;-65
2023/05/17 00:18:04;;;;;;;16.70;3.90;;;;;;;11.55;72.57;101970.66;4991890;28;20046;-65
2023/05/17 00:20:32;;;;;;;13.77;4.03;;;;;;;11.64;72.03;101974.47;5007129;28;20061;-65
2023/05/17 00:22:59;;;;;;;18.05;4.13;;;;;;;11.67;71.97;101981.31;5028982;28;20448;-65
2023/05/17 00:25:27;;;;;;;11.02;3.55;;;;;;;11.59;71.91;101981.94;4995857;28;20160;-66
2023/05/17 00:27:55;;;;;;;12.27;3.50;;;;;;;11.66;71.06;101968.66;4994229;28;20069;-65
2023/05/17 00:30:22;;;;;;;11.15;3.85;;;;;;;11.62;71.42;101970.31;5013396;28;20057;-65
2023/05/17 00:32:50;;;;;;;10.70;3.75;;;;;;;11.65;71.19;101967.00;5012189;28;20042;-65
2023/05/17 00:35:17;;;;;;;12.57;3.67;;;;;;;11.69;70.65;101973.59;4996191;28;20104;-66
2023/05/17 00:37:46;;;;;;;11.25;3.63;;;;;;;11.45;71.55;101972.66;5012923;28;20054;-64
2023/05/17 00:40:15;;;;;;;15.97;3.67;;;;;;;11.45;71.01;101965.22;5028719;28;20054;-67
2023/05/17 00:42:42;;;;;;;14.35;4.00;;;;;;;11.26;71.57;101973.34;5013272;28;20054;-68
2023/05/17 00:45:10;;;;;;;12.18;3.80;;;;;;;11.35;71.61;101971.63;4995932;28;20054;-68
2023/05/17 00:47:37;;;;;;;14.65;3.78;;;;;;;11.49;71.19;101976.50;5027458;28;20462;-68
2023/05/17 00:50:06;;;;;;;12.30;3.75;;;;;;;11.36;71.58;101975.22;4996369;28;20580;-67
2023/05/17 00:52:34;;;;;;;12.70;3.70;;;;;;;11.48;71.47;101978.44;4995534;28;20726;-68
2023/05/17 00:55:02;;;;;;;11.77;3.55;;;;;;;11.50;71.50;101976.22;4992644;28;20553;-68
2023/05/17 00:57:30;;;;;;;10.07;3.63;;;;;;;11.57;71.25;101978.63;4995498;28;20061;-67
2023/05/17 01:00:00;;;;;;;11.57;3.25;;;;;;;11.54;71.20;101963.47;5013687;28;20069;-67
2023/05/17 01:02:28;;;;;;;11.65;3.55;;;;;;;11.30;72.28;101977.19;5013381;28;20045;-69
2023/05/17 01:04:56;;;;;;;11.43;3.50;;;;;;;11.43;72.09;101966.63;5013690;28;20053;-68
2023/05/17 01:07:24;;;;;;;12.15;3.38;;;;;;;11.55;71.59;101965.13;4995967;28;20058;-68
2023/05/17 01:09:52;;;;;;;13.48;3.55;;;;;;;11.42;72.13;101967.75;5014693;28;20402;-68
2023/05/17 01:12:50;;;;;;;13.95;4.15;;;;;;;11.61;71.56;101958.44;5017361;28;20061;-68
2023/05/17 01:15:31;;;;;;;14.57;3.72;;;;;;;11.53;71.46;101959.06;5016137;28;20570;-68
2023/05/17 01:18:09;;;;;;;11.27;3.75;;;;;;;11.69;71.15;101960.63;5016542;28;20053;-68
2023/05/17 01:20:40;;;;;;;14.27;3.22;;;;;;;11.77;70.62;101968.25;5002993;28;20508;-64
2023/05/17 01:23:35;;;;;;;13.45;3.75;;;;;;;11.60;71.24;101955.97;5001906;28;20054;-65
2023/05/17 01:26:16;;;;;;;12.55;3.30;;;;;;;11.59;71.67;101962.63;5015895;28;20532;-65
2023/05/17 01:28:52;;;;;;;13.32;3.63;;;;;;;11.70;71.34;101967.78;5014849;28;20053;-65
2023/05/17 01:31:21;;;;;;;9.30;3.70;;;;;;;11.74;71.23;101956.97;5031892;28;20042;-69
2023/05/17 01:33:49;;;;;;;7.55;3.60;;;;;;;11.41;72.29;101955.03;4983848;28;20049;-68
2023/05/17 01:36:17;;;;;;;19.77;4.18;;;;;;;11.27;73.31;101957.63;5004912;28;20060;-69
2023/05/17 01:38:44;;;;;;;12.15;4.28;;;;;;;11.28;73.51;101968.38;5016834;28;20050;-69
2023/05/17 01:41:21;;;;;;;14.95;3.78;;;;;;;11.25;73.56;101960.69;5017035;28;20516;-68
2023/05/17 01:44:08;;;;;;;13.73;3.92;;;;;;;11.33;73.43;101954.53;4980145;28;20046;-66
2023/05/17 01:46:40;;;;;;;12.43;3.72;;;;;;;11.50;72.90;101956.06;5011827;28;20054;-69
2023/05/17 01:49:14;;;;;;;12.80;4.25;;;;;;;11.49;72.58;101955.22;4987309;28;20050;-68
2023/05/17 01:52:08;;;;;;;11.07;4.22;;;;;;;11.55;72.82;101958.78;4998716;28;20053;-70
2023/05/17 01:54:46;;;;;;;13.85;3.88;;;;;;;11.52;72.89;101957.44;4989650;28;20057;-69
2023/05/17 01:57:14;;;;;;;16.33;5.03;;;;;;;11.65;72.32;101965.06;4997800;28;20050;-68
2023/05/17 01:59:43;;;;;;;11.27;3.95;;;;;;;11.73;72.27;101964.44;4998693;28;20046;-66
2023/05/17 02:02:13;;;;;;;11.05;3.83;;;;;;;11.80;71.53;101958.59;5015853;28;20060;-66
2023/05/17 02:04:41;;;;;;;10.65;4.13;;;;;;;11.41;73.41;101961.38;5016082;28;20045;-69
2023/05/17 02:07:08;;;;;;;13.55;4.28;;;;;;;11.58;73.34;101955.44;5031603;28;20050;-67
2023/05/17 02:09:36;;;;;;;19.88;5.47;;;;;;;11.62;73.17;101956.50;5015956;28;20037;-65
2023/05/17 02:12:04;;;;;;;16.98;4.95;;;;;;;11.51;73.99;101955.78;5030187;28;20386;-66
2023/05/17 02:14:33;;;;;;;12.82;4.90;;;;;;;11.41;74.37;101957.78;5014212;28;20537;-65
2023/05/17 02:17:01;;;;;;;15.88;5.25;;;;;;;11.64;73.40;101952.38;5030459;28;20050;-65
2023/05/17 02:19:28;;;;;;;17.02;6.22;;;;;;;11.89;73.16;101959.59;5001935;28;20050;-66
2023/05/17 02:21:56;;;;;;;15.60;5.30;;;;;;;11.85;72.62;101964.03;4996028;28;20394;-69
2023/05/17 02:24:24;;;;;;;15.13;5.43;;;;;;;11.89;72.84;101952.13;5015209;28;20147;-69
2023/05/17 02:26:51;;;;;;;15.70;5.18;;;;;;;12.14;72.22;101962.06;5010913;28;20061;-69
2023/05/17 02:29:19;;;;;;;14.75;5.13;;;;;;;11.97;71.86;101962.53;5008643;28;20057;-70
2023/05/17 02:31:47;;;;;;;14.90;5.55;;;;;;;11.84;72.89;101968.75;5030119;28;20417;-68
2023/05/17 02:34:16;;;;;;;18.83;5.72;;;;;;;11.90;72.23;101975.03;4980876;28;20050;-69
2023/05/17 02:36:43;;;;;;;16.95;5.97;;;;;;;11.95;72.17;101973.06;4991686;28;20409;-69
2023/05/17 02:39:12;;;;;;;12.10;5.95;;;;;;;11.36;74.99;101972.47;5015411;28;20054;-69
2023/05/17 02:41:39;;;;;;;14.05;6.57;;;;;;;11.47;74.98;101981.50;5013481;28;20046;-68
2023/05/17 02:44:07;;;;;;;19.02;6.35;;;;;;;11.63;74.15;101977.50;5015474;28;20045;-68
2023/05/17 02:46:34;;;;;;;17.92;5.97;;;;;;;11.68;74.24;101977.47;5014599;28;20057;-69
2023/05/17 02:49:04;;;;;;;;;;;;;;;11.34;75.44;101978.28;5014157;28;20061;-68
2023/05/17 02:51:31;;;;;;;20.83;6.50;;;;;;;11.41;75.43;101980.69;4997920;28;19921;-69
2023/05/17 02:54:00;;;;;;;13.65;5.90;;;;;;;11.39;75.40;101974.66;4981596;28;20045;-69
2023/05/17 02:56:27;;;;;;;20.83;6.50;;;;;;;11.32;75.67;101983.25;5014405;28;20053;-69
2023/05/17 02:58:56;;;;;;;18.08;6.68;;;;;;;11.21;76.28;101980.84;5029907;28;20050;-68
2023/05/17 03:01:23;;;;;;;16.42;6.38;;;;;;;11.36;75.63;101977.97;4998394;28;20053;-68
2023/05/17 03:03:51;;;;;;;18.92;7.47;;;;;;;11.33;75.25;101984.09;4997593;28;20413;-67
2023/05/17 03:06:19;;;;;;;23.10;6.63;;;;;;;11.54;74.61;101985.53;5030632;28;20050;-69
2023/05/17 03:08:49;;;;;;;14.75;6.30;;;;;;;11.60;74.68;101980.81;5014731;28;20057;-68
2023/05/17 03:11:16;;;;;;;17.67;6.85;;;;;;;11.60;74.28;101992.69;4996921;28;20064;-68
2023/05/17 03:13:45;;;;;;;19.23;7.35;;;;;;;11.31;75.02;101980.78;4997320;28;20061;-69
2023/05/17 03:16:13;;;;;;;13.90;7.03;;;;;;;11.34;75.53;101986.56;5014219;28;20524;-69
2023/05/17 03:18:40;;;;;;;21.25;7.38;;;;;;;11.41;75.66;101977.09;4980954;28;20054;-69
2023/05/17 03:21:08;;;;;;;16.77;7.75;;;;;;;11.30;76.80;101984.63;4981728;28;20058;-70
2023/05/17 03:23:35;;;;;;;26.95;8.57;;;;;;;11.02;78.89;101983.47;4997353;28;20070;-69
2023/05/17 03:26:03;;;;;;;19.25;8.85;;;;;;;11.13;78.20;101982.28;5008567;28;20531;-71
2023/05/17 03:28:35;;;;;;;19.27;8.10;;;;;;;11.05;79.17;101993.91;5030359;28;20049;-69
2023/05/17 03:31:03;;;;;;;17.33;8.18;;;;;;;11.18;78.71;101987.78;5030498;28;20050;-70
2023/05/17 03:33:32;;;;;;;17.90;9.27;;;;;;;11.36;78.39;101989.03;4997472;28;20054;-69
2023/05/17 03:36:00;;;;;;;19.77;9.05;;;;;;;11.43;77.37;101981.25;5013496;28;20069;-69
2023/05/17 03:38:28;;;;;;;28.05;9.90;;;;;;;11.11;78.93;101998.28;4978063;28;20043;-69
2023/05/17 03:40:56;;;;;;;23.85;9.43;;;;;;;11.20;79.11;101991.06;4994180;28;20046;-69
2023/05/17 03:43:23;;;;;;;18.33;9.23;;;;;;;11.43;78.46;101988.69;5012292;28;20549;-69
2023/05/17 03:45:50;;;;;;;21.30;9.90;;;;;;;11.16;78.66;101983.63;4980965;28;20046;-71
2023/05/17 03:48:18;;;;;;;20.65;9.63;;;;;;;10.71;81.32;101989.44;4996797;28;20058;-70
2023/05/17 03:50:46;;;;;;;25.55;11.95;;;;;;;10.34;84.08;101998.13;5013583;28;20058;-69
2023/05/17 03:53:13;;;;;;;23.13;10.90;;;;;;;10.45;84.80;101991.47;5014194;28;20052;-69
2023/05/17 03:55:41;;;;;;;24.05;12.32;;;;;;;10.46;84.59;101989.56;4996852;28;20056;-70
2023/05/17 03:58:09;;;;;;;24.23;12.45;;;;;;;10.44;85.09;102002.78;4997284;28;20060;-69
2023/05/17 04:00:36;;;;;;;23.83;11.07;;;;;;;10.62;84.95;101993.88;5014366;28;20050;-70
2023/05/17 04:03:11;;;;;;;27.20;10.73;;;;;;;10.83;83.65;101999.00;5005549;28;20050;-69
2023/05/17 04:05:40;;;;;;;23.92;12.15;;;;;;;10.72;82.65;102008.44;5013185;28;20058;-70
2023/05/17 04:08:08;;;;;;;29.90;12.80;;;;;;;10.81;82.25;102008.69;5028732;28;20057;-69
2023/05/17 04:10:35;;;;;;;25.73;12.57;;;;;;;10.67;83.30;102013.97;5012803;28;20058;-70
2023/05/17 04:13:03;;;;;;;25.08;13.57;;;;;;;10.68;83.42;102023.91;5028666;28;20414;-70
2023/05/17 04:15:31;;;;;;;32.15;15.32;;;;;;;10.52;84.60;102026.97;4995755;28;20142;-69
2023/05/17 04:17:59;;;;;;;28.52;13.82;;;;;;;10.69;84.78;102021.94;5011321;28;20058;-69
2023/05/17 04:20:26;;;;;;;24.23;14.20;;;;;;;10.83;83.80;102028.50;4996565;28;20502;-70
2023/05/17 04:22:54;;;;;;;30.10;15.10;;;;;;;11.01;83.16;102034.22;5029552;28;20516;-70
2023/05/17 04:25:23;;;;;;;28.55;15.52;;;;;;;10.92;82.83;102032.31;5007175;28;20046;-69
2023/05/17 04:27:51;;;;;;;26.38;15.48;;;;;;;11.08;82.60;102036.66;4995299;28;20556;-70
2023/05/17 04:30:20;;;;;;;31.60;15.70;;;;;;;10.92;82.14;102044.19;5012376;28;20046;-69
2023/05/17 04:32:50;;;;;;;36.95;16.77;;;;;;;10.63;85.04;102045.13;5014254;28;20050;-71
2023/05/17 04:35:18;;;;;;;25.65;15.32;;;;;;;10.68;84.77;102058.91;4996478;28;20072;-69
2023/05/17 04:37:50;;;;;;;31.88;16.25;;;;;;;10.51;85.51;102056.47;5028251;28;20051;-70
2023/05/17 04:40:20;;;;;;;31.30;17.35;;;;;;;10.48;86.00;102058.97;5023326;28;20049;-68
2023/05/17 04:42:48;;;;;;;34.00;16.70;;;;;;;10.43;85.74;102059.78;5014364;28;20080;-69
2023/05/17 04:45:17;;;;;;;32.13;16.40;;;;;;;10.48;85.63;102061.72;5030533;28;20434;-69
2023/05/17 04:47:44;;;;;;;24.45;15.13;;;;;;;10.34;85.94;102057.91;5000501;28;20053;-69
2023/05/17 04:50:14;;;;;;;31.83;15.52;;;;;;;10.47;85.80;102060.91;5008660;28;20056;-67
2023/05/17 04:52:42;;;;;;;29.90;15.07;;;;;;;10.42;84.82;102066.41;5016314;28;20530;-69
2023/05/17 04:55:10;;;;;;;29.90;14.70;;;;;;;10.40;85.63;102073.31;5000148;28;20045;-69
2023/05/17 04:57:38;;;;;;;28.95;15.60;;;;;;;10.43;85.82;102068.06;5033100;28;20054;-68
2023/05/17 05:00:08;;;;;;;28.63;15.65;;;;;;;10.52;84.79;102065.56;4983858;28;20050;-70
2023/05/17 05:02:38;;;;;;;26.23;14.68;;;;;;;10.78;83.70;102075.38;5014788;28;20057;-69
2023/05/17 05:05:08;;;;;;;26.25;14.88;;;;;;;10.76;83.16;102075.66;5000230;28;20046;-69
2023/05/17 05:07:38;;;;;;;25.83;15.38;;;;;;;10.78;82.59;102075.38;4999509;28;20058;-69
2023/05/17 05:10:07;;;;;;;27.30;15.15;;;;;;;10.80;82.47;102079.53;4999697;28;20053;-70
2023/05/17 05:12:36;;;;;;;29.02;14.35;;;;;;;10.99;81.57;102087.97;4999668;28;20065;-70
2023/05/17 05:15:05;;;;;;;27.17;14.55;;;;;;;10.95;81.81;102082.19;5016400;28;20413;-69
2023/05/17 05:17:33;;;;;;;28.95;15.27;;;;;;;10.71;82.17;102088.63;5015797;28;20077;-70
2023/05/17 05:20:01;;;;;;;25.00;14.32;;;;;;;10.72;82.82;102087.53;4999435;28;20594;-69
2023/05/17 05:22:29;;;;;;;27.27;14.60;;;;;;;10.88;82.15;102092.69;5000021;28;20058;-69
2023/05/17 05:24:57;;;;;;;28.25;15.10;;;;;;;10.67;82.23;102093.88;5032511;28;20105;-69
2023/05/17 05:27:25;;;;;;;29.83;15.18;;;;;;;10.56;83.03;102097.78;4999804;28;20045;-69
2023/05/17 05:29:53;;;;;;;25.75;14.35;;;;;;;10.74;82.52;102093.59;5017275;28;20050;-69
2023/05/17 05:32:22;;;;;;;;;;;;;;;10.99;81.23;102101.75;5016540;28;20061;-69
2023/05/17 05:34:50;;;;;;;26.92;13.90;;;;;;;10.88;80.51;102094.66;5015681;28;19921;-70
2023/05/17 05:37:18;;;;;;;25.48;13.75;;;;;;;10.92;79.37;102096.56;5006794;28;20559;-68
2023/05/17 05:39:45;;;;;;;34.13;13.20;;;;;;;11.00;78.76;102101.47;5031342;28;20053;-69
2023/05/17 05:42:13;;;;;;;23.63;12.75;;;;;;;10.74;79.23;102105.44;4998398;28;20068;-68
2023/05/17 05:44:40;;;;;;;27.85;12.93;;;;;;;10.86;78.51;102105.94;5015117;28;20049;-68
2023/05/17 05:47:08;;;;;;;24.80;12.45;;;;;;;11.21;77.59;102113.22;4998488;28;20046;-68
2023/05/17 05:49:36;;;;;;;20.17;12.32;;;;;;;11.13;77.29;102122.09;5014286;28;20108;-68
2023/05/17 05:52:03;;;;;;;22.83;12.90;;;;;;;10.99;78.10;102127.41;4995211;28;20588;-69
2023/05/17 05:54:31;;;;;;;34.28;12.00;;;;;;;11.29;77.25;102110.72;5024092;28;20054;-69
2023/05/17 05:56:59;;;;;;;23.20;12.13;;;;;;;11.33;76.27;102116.50;5009974;28;20047;-68
2023/05/17 05:59:27;;;;;;;19.48;10.77;;;;;;;11.24;76.03;102126.47;5009833;28;20057;-68
2023/05/17 06:01:56;;;;;;;31.13;13.02;;;;;;;11.05;76.67;102140.03;5004505;28;20065;-65
2023/05/17 06:04:24;;;;;;;29.00;12.48;;;;;;;10.88;77.28;102131.28;5014943;28;20462;-65
2023/05/17 06:07:10;;;;;;;29.02;12.50;;;;;;;10.91;78.09;102140.94;5028210;28;20501;-66
2023/05/17 06:09:38;;;;;;;29.27;14.32;;;;;;;10.79;78.20;102144.00;4998430;28;20064;-66
2023/05/17 06:12:05;;;;;;;29.45;14.32;;;;;;;10.78;78.27;102142.34;4979721;28;20078;-65
2023/05/17 06:14:36;;;;;;;31.67;14.98;;;;;;;10.83;78.90;102147.84;4998015;28;20414;-65
2023/05/17 06:17:03;;;;;;;24.75;14.07;;;;;;;10.81;78.91;102147.31;5015569;28;20054;-69
2023/05/17 06:19:31;;;;;;;24.25;12.77;;;;;;;10.91;78.26;102158.28;5015534;28;20053;-68
2023/05/17 06:21:59;;;;;;;30.20;13.65;;;;;;;10.83;78.55;102158.03;5015896;28;20058;-68
2023/05/17 06:24:26;;;;;;;27.08;12.23;;;;;;;11.05;77.34;102159.34;5016236;28;20050;-69
2023/05/17 06:26:53;;;;;;;21.35;10.80;;;;;;;10.92;76.55;102170.97;5016017;28;20053;-70
2023/05/17 06:29:21;;;;;;;27.27;11.30;;;;;;;10.89;77.79;102165.22;5014635;28;20049;-68
2023/05/17 06:31:48;;;;;;;22.80;10.23;;;;;;;10.86;78.07;102165.78;4998589;28;20050;-68
2023/05/17 06:34:15;;;;;;;25.83;10.68;;;;;;;11.18;76.58;102164.28;4997633;28;20156;-68
2023/05/17 06:36:43;;;;;;;22.25;10.95;;;;;;;11.22;75.67;102168.13;5013587;28;20053;-67
2023/05/17 06:39:10;;;;;;;23.58;9.98;;;;;;;11.12;75.79;102167.34;4998008;28;20050;-68
2023/05/17 06:41:38;;;;;;;17.60;8.15;;;;;;;11.16;73.96;102166.47;5015479;28;20042;-66
2023/05/17 06:44:05;;;;;;;24.48;9.52;;;;;;;11.33;73.69;102177.97;4997299;28;20153;-68
2023/05/17 06:46:35;;;;;;;27.33;9.95;;;;;;;11.55;73.17;102162.97;4998624;28;20060;-68
2023/05/17 06:49:03;;;;;;;22.35;10.18;;;;;;;11.53;72.87;102167.94;5015139;28;20057;-68
2023/05/17 06:51:30;;;;;;;24.70;9.45;;;;;;;11.41;72.78;102165.53;5014321;28;20058;-68
2023/05/17 06:53:57;;;;;;;20.85;9.18;;;;;;;11.38;72.03;102173.56;5015185;28;20064;-68
2023/05/17 06:56:25;;;;;;;26.85;9.40;;;;;;;11.42;71.71;102178.22;5014103;28;20050;-69
2023/05/17 06:58:52;;;;;;;22.92;9.68;;;;;;;11.61;70.63;102164.63;5015599;28;20542;-68
2023/05/17 07:01:21;;;;;;;24.45;9.13;;;;;;;11.31;71.17;102171.91;5013227;28;20061;-68
2023/05/17 07:03:48;;;;;;;22.02;8.80;;;;;;;11.09;71.26;102179.75;5013470;28;20060;-68
2023/05/17 07:06:15;;;;;;;24.15;8.13;;;;;;;11.03;71.13;102180.06;5015269;28;20050;-69
2023/05/17 07:08:43;;;;;;;19.45;7.45;;;;;;;11.08;69.90;102180.03;5013846;28;20041;-70
2023/05/17 07:11:10;;;;;;;19.20;7.95;;;;;;;11.20;71.13;102180.53;5012718;28;20057;-68
2023/05/17 07:13:38;;;;;;;20.15;8.60;;;;;;;11.44;70.65;102189.00;5014747;28;20516;-70
2023/05/17 07:16:07;;;;;;;20.58;7.22;;;;;;;11.29;70.52;102187.13;5014573;28;20042;-68
2023/05/17 07:18:34;;;;;;;18.17;7.00;;;;;;;11.27;69.80;102194.84;4996800;28;20054;-69
2023/05/17 07:21:02;;;;;;;17.33;6.82;;;;;;;11.42;69.50;102197.53;4996951;28;20824;-69
2023/05/17 07:23:29;;;;;;;18.52;6.45;;;;;;;11.63;69.30;102198.28;5015101;28;20050;-69
2023/05/17 07:25:56;;;;;;;19.13;5.65;;;;;;;11.83;68.05;102190.72;5014442;28;20053;-69
2023/05/17 07:28:24;;;;;;;19.45;6.28;;;;;;;12.07;67.65;102188.06;5014839;28;20058;-68
2023/05/17 07:30:51;;;;;;;24.85;6.57;;;;;;;12.01;67.29;102195.56;5014570;28;20050;-69
2023/05/17 07:33:18;;;;;;;17.33;6.78;;;;;;;12.04;66.65;102195.00;5014179;28;20052;-68
2023/05/17 07:35:46;;;;;;;16.40;6.53;;;;;;;12.35;66.24;102198.34;5029025;28;20521;-68
2023/05/17 07:38:13;;;;;;;20.55;6.72;;;;;;;12.38;66.60;102195.81;5012612;28;20058;-69
2023/05/17 07:40:41;;;;;;;19.17;6.25;;;;;;;12.44;66.00;102197.44;5014578;28;20053;-69
2023/05/17 07:43:08;;;;;;;16.98;6.72;;;;;;;12.41;65.77;102199.94;5013360;28;20146;-67
2023/05/17 07:45:35;;;;;;;14.60;5.82;;;;;;;12.25;64.91;102202.03;5014768;28;20049;-68
2023/05/17 07:48:03;;;;;;;17.83;6.55;;;;;;;12.56;64.78;102201.75;5014468;28;20046;-68
2023/05/17 07:50:31;;;;;;;18.20;6.15;;;;;;;12.92;64.08;102198.31;5012203;28;20062;-68
2023/05/17 07:52:58;;;;;;;21.38;6.35;;;;;;;12.75;63.34;102194.34;5014398;28;20045;-68
2023/05/17 07:55:25;;;;;;;17.98;5.93;;;;;;;12.68;63.51;102199.41;4997179;28;20053;-68
2023/05/17 07:57:53;;;;;;;21.10;6.47;;;;;;;13.05;61.93;102192.13;5013218;28;20044;-69
2023/05/17 08:00:21;;;;;;;14.32;6.10;;;;;;;13.20;61.61;102191.94;5014796;28;20057;-67
2023/05/17 08:02:49;;;;;;;21.52;5.97;;;;;;;13.43;61.16;102193.88;4996310;28;20053;-68
2023/05/17 08:05:16;;;;;;;16.60;6.57;;;;;;;13.31;60.99;102198.19;5013829;28;20054;-68
2023/05/17 08:07:43;;;;;;;18.00;6.15;;;;;;;13.33;61.06;102204.25;5012320;28;20050;-67
2023/05/17 08:10:11;;;;;;;16.95;6.70;;;;;;;13.27;59.96;102203.47;4996430;28;20054;-68
2023/05/17 08:12:38;;;;;;;21.55;6.97;;;;;;;13.03;60.58;102202.66;5013078;28;20061;-68
2023/05/17 08:15:06;;;;;;;17.67;6.28;;;;;;;12.66;60.67;102198.91;5013850;28;20060;-67
2023/05/17 08:17:33;;;;;;;15.20;5.82;;;;;;;12.72;60.19;102201.31;5012218;28;20060;-69
2023/05/17 08:20:01;;;;;;;17.38;5.80;;;;;;;12.81;60.37;102202.34;5012687;28;20064;-68
2023/05/17 08:22:28;;;;;;;19.55;6.15;;;;;;;12.87;61.00;102205.84;5012101;28;20042;-68
2023/05/17 08:24:55;;;;;;;20.27;6.70;;;;;;;12.56;60.27;102201.75;5015945;28;20053;-68
2023/05/17 08:27:25;;;;;;;14.95;6.22;;;;;;;12.64;60.75;102204.69;4995549;28;20045;-68
2023/05/17 08:29:54;;;;;;;19.27;6.13;;;;;;;12.91;60.75;102199.44;5026862;28;20065;-69
2023/05/17 08:32:22;;;;;;;14.45;6.53;;;;;;;12.65;60.98;102205.53;5014204;28;20046;-69
2023/05/17 08:34:49;;;;;;;19.60;5.97;;;;;;;12.85;61.29;102211.69;5012069;28;20541;-68
2023/05/17 08:37:17;;;;;;;14.32;5.88;;;;;;;12.56;60.06;102208.09;4991615;28;20042;-69
2023/05/17 08:39:45;;;;;;;20.27;6.53;;;;;;;12.71;60.39;102196.09;5026919;28;20049;-68
2023/05/17 08:42:14;;;;;;;16.45;6.30;;;;;;;12.63;59.69;102210.50;5017797;28;20057;-68
2023/05/17 08:44:42;;;;;;;21.50;7.05;;;;;;;12.44;59.98;102204.91;5010605;28;20054;-68
2023/05/17 08:47:11;;;;;;;20.55;7.32;;;;;;;12.58;60.83;102197.56;5003062;28;20058;-67
2023/05/17 08:49:41;;;;;;;17.23;7.10;;;;;;;12.73;60.29;102197.41;4996340;28;20057;-68
2023/05/17 08:52:09;;;;;;;23.48;6.95;;;;;;;12.66;60.05;102196.94;4980034;28;20057;-68
2023/05/17 08:54:37;;;;;;;19.33;6.40;;;;;;;12.69;58.55;102185.31;4996166;28;20053;-69
2023/05/17 08:57:06;;;;;;;23.40;6.53;;;;;;;13.01;58.38;102181.91;5013225;28;20057;-68
2023/05/17 08:59:33;;;;;;;24.23;6.75;;;;;;;12.92;57.31;102192.78;5011694;28;20485;-69
2023/05/17 09:02:04;;;;;;;18.48;6.13;;;;;;;12.85;56.34;102175.72;4995381;28;20054;-69
2023/05/17 09:04:32;;;;;;;18.80;6.35;;;;;;;13.12;57.07;102180.72;5013257;28;20057;-68
2023/05/17 09:06:59;;;;;;;13.02;5.80;;;;;;;13.25;56.08;102177.25;4993955;28;20046;-71
2023/05/17 09:09:27;;;;;;;14.98;4.90;;;;;;;12.90;53.83;102186.72;4992557;28;20050;-68
2023/05/17 09:11:54;;;;;;;16.20;5.28;;;;;;;13.22;51.90;102177.81;5009990;28;20057;-68
2023/05/17 09:14:21;;;;;;;14.07;5.10;;;;;;;13.41;52.17;102173.13;5004259;28;20050;-68
2023/05/17 09:16:56;;;;;;;11.60;4.88;;;;;;;13.82;51.74;102176.16;5014859;28;20072;-68
2023/05/17 09:19:24;;;;;;;13.38;4.90;;;;;;;13.91;52.75;102172.44;5004763;28;20042;-67
2023/05/17 09:21:53;;;;;;;17.08;5.60;;;;;;;13.92;53.39;102171.31;5011600;28;20050;-68
2023/05/17 09:24:28;;;;;;;18.45;6.25;;;;;;;13.99;53.67;102171.75;5008052;28;20086;-68
2023/05/17 09:27:02;;;;;;;19.30;5.90;;;;;;;13.99;55.04;102174.53;4994929;28;20054;-71
2023/05/17 09:29:31;;;;;;;14.02;5.13;;;;;;;13.81;52.05;102180.88;5011427;28;20600;-70
2023/05/17 09:32:15;;;;;;;13.48;4.80;;;;;;;13.68;51.25;102181.63;5029224;28;20461;-69
2023/05/17 09:34:44;;;;;;;12.75;4.60;;;;;;;13.66;51.04;102189.41;5013911;28;20052;-68
2023/05/17 09:37:14;;;;;;;12.60;4.20;;;;;;;13.95;52.71;102178.16;5009357;28;20053;-68
2023/05/17 09:39:43;;;;;;;12.02;4.63;;;;;;;14.13;51.62;102175.41;5008782;28;20058;-68
2023/05/17 09:42:11;;;;;;;16.13;4.55;;;;;;;14.22;50.46;102170.81;4999033;28;20061;-69
2023/05/17 09:44:54;;;;;;;12.52;3.90;;;;;;;14.05;50.77;102170.53;4997932;28;20050;-69
2023/05/17 09:47:24;;;;;;;15.98;4.75;;;;;;;13.95;50.44;102183.72;5013696;28;20042;-70
2023/05/17 09:49:52;;;;;;;17.25;4.47;;;;;;;13.92;50.12;102176.00;5012361;28;20057;-70
2023/05/17 09:52:20;;;;;;;15.15;4.50;;;;;;;13.95;51.00;102167.94;4999695;28;20413;-72
2023/05/17 09:54:54;;;;;;;13.02;4.82;;;;;;;14.14;51.25;102165.94;5014152;28;20069;-72
2023/05/17 09:57:22;;;;;;;15.65;5.05;;;;;;;14.13;51.37;102167.09;4991691;28;20053;-71
2023/05/17 09:59:50;;;;;;;14.73;4.75;;;;;;;14.51;50.90;102173.38;5015644;28;20509;-70
2023/05/17 10:02:21;;;;;;;18.48;5.15;;;;;;;14.17;50.91;102164.53;5011041;28;20064;-71
2023/05/17 10:04:50;;;;;;;14.10;4.97;;;;;;;14.10;50.95;102169.63;4994969;28;20496;-71
2023/05/17 10:07:19;;;;;;;13.50;4.32;;;;;;;14.13;49.97;102177.34;4979648;28;20050;-71
2023/05/17 10:09:48;;;;;;;11.93;3.95;;;;;;;14.11;50.06;102171.28;4994974;28;20049;-72
2023/05/17 10:12:17;;;;;;;14.60;4.45;;;;;;;14.05;49.86;102175.25;4989174;28;20049;-71
2023/05/17 10:14:44;;;;;;;16.42;4.70;;;;;;;13.99;50.39;102170.91;5010326;28;20049;-71
2023/05/17 10:17:13;;;;;;;12.88;4.28;;;;;;;14.06;51.23;102158.34;5012819;28;20054;-71
2023/05/17 10:19:41;;;;;;;13.55;4.65;;;;;;;14.22;50.93;102170.81;5013707;28;20053;-73
2023/05/17 10:22:09;;;;;;;22.42;5.20;;;;;;;14.26;49.56;102155.25;5016725;28;20061;-72
2023/05/17 10:24:52;;;;;;;12.95;4.63;;;;;;;14.29;49.87;102159.38;5022367;28;20053;-73
2023/05/17 10:27:20;;;;;;;15.23;4.38;;;;;;;14.39;49.66;102154.47;5012400;28;20068;-70
2023/05/17 10:29:48;;;;;;;12.50;3.95;;;;;;;14.51;49.61;102149.25;5020578;28;20054;-71
2023/05/17 10:32:18;;;;;;;9.82;4.00;;;;;;;14.53;49.14;102152.56;5005608;28;20054;-73
2023/05/17 10:34:49;;;;;;;14.23;4.45;;;;;;;14.51;49.05;102145.66;4995705;28;20049;-69
2023/05/17 10:37:35;;;;;;;;;;;;;;;14.61;48.22;102146.31;5011338;28;20050;-71
2023/05/17 10:40:03;;;;;;;12.45;3.85;;;;;;;14.53;47.46;102143.41;5010028;28;19952;-70
2023/05/17 10:42:31;;;;;;;13.63;4.20;;;;;;;14.30;47.17;102141.59;4997855;28;20410;-68
2023/05/17 10:45:00;;;;;;;9.57;3.90;;;;;;;14.57;46.66;102144.47;5014824;28;20045;-70
2023/05/17 10:47:31;;;;;;;14.18;4.18;;;;;;;14.79;47.30;102135.44;5024383;28;20628;-70
2023/05/17 10:49:59;;;;;;;12.20;4.13;;;;;;;14.81;47.14;102135.94;5012272;28;20046;-70
2023/05/17 10:52:26;;;;;;;9.77;3.42;;;;;;;15.03;46.16;102145.19;5014816;28;20045;-70
2023/05/17 10:54:54;;;;;;;12.45;3.55;;;;;;;15.37;46.61;102126.16;5015245;28;20056;-70
2023/05/17 10:57:33;;;;;;;8.23;3.53;;;;;;;15.11;46.48;102119.53;5013771;28;20068;-70
2023/05/17 11:00:20;;;;;;;9.25;3.65;;;;;;;15.28;45.64;102116.91;5019135;28;20545;-70
2023/05/17 11:02:49;;;;;;;9.15;3.30;;;;;;;15.27;45.53;102120.81;5014121;28;20167;-70
2023/05/17 11:05:24;;;;;;;13.93;3.47;;;;;;;15.20;45.60;102114.84;5010129;28;20045;-69
2023/05/17 11:07:51;;;;;;;10.77;3.45;;;;;;;15.17;45.30;102137.69;5025938;28;20062;-69
2023/05/17 11:10:19;;;;;;;13.40;3.47;;;;;;;15.13;44.55;102133.88;5015070;28;20054;-68
2023/05/17 11:12:52;;;;;;;13.38;3.67;;;;;;;15.31;44.85;102119.06;5002896;28;20058;-70
2023/05/17 11:15:23;;;;;;;13.02;3.67;;;;;;;15.52;44.88;102125.00;5012074;28;20061;-70
2023/05/17 11:17:55;;;;;;;10.90;3.70;;;;;;;15.60;44.95;102110.41;5011414;28;20054;-68
2023/05/17 11:20:26;;;;;;;12.35;5.40;;;;;;;15.72;44.53;102113.44;5016587;28;20054;-69
2023/05/17 11:22:57;;;;;;;14.02;5.10;;;;;;;15.75;43.86;102110.88;5012481;28;20516;-71
2023/05/17 11:25:30;;;;;;;17.27;3.28;;;;;;;16.01;43.01;102107.44;5010379;28;20060;-69